Rechercher aéroport 
image banner adimage banner ad
image banner ad

LI-NU03 - Aviosuperfice Dorgali

Situé à Dorgali, Italy

ICAO - , IATA -

Données fournies par Airmate  

Information générale

Coordonnées: N40°20'54" E9°32'55"
Élévation : 587 feet MSL.
 
Voir autres Aéroports à Sardinia

Données opérationnelles

Accessible au public
Heure actuelle UTC:
Heure actuelle locale:
Météo à : LIEO - Olbia/Costa Smeralda ( 61 km )
METAR: LIEO 261120Z 27025G40KT 9999 FEW030 20/07 Q1005 RMK WS RWY 23
TAF: TAF LIEO 260500Z 2606/2706 26025G35KT 9999 SCT030 TEMPO 2700/2706 TSRA
Voir NOTAMs / SUP AIP / TFR affectant cet aéroport [VIEW]
Fréquences de communication: [VIEW]

Pistes:

Identifiant RWYQFULongueur (ft)Largeur (ft)SurfaceLDA (ft)
03213282GRASS
21213282GRASS

Coordonnées de l'aéroport

Adresse: Dorgali Italy

Vue satellite de LI-NU03